Date,TemperatureHighF,TemperatureAvgF,TemperatureLowF,DewpointHighF,DewpointAvgF,DewpointLowF,HumidityHigh,HumidityAvg,HumidityLow,PressureMaxIn,PressureMinIn,WindSpeedMaxMPH,WindSpeedAvgMPH,GustSpeedMaxMPH,PrecipitationSumIn
2013-2-1,64.4,43.6,24.9,28.4,21.7,14.5,91,50,15,30.31,30.07,7,1,8,0.00
2013-2-2,61.2,46.0,33.9,25.6,19.1,14.2,62,37,16,30.37,30.12,7,1,10,0.00
2013-2-3,61.5,48.0,31.8,46.1,30.1,18.6,77,51,30,30.37,29.92,7,1,9,0.00
2013-2-4,65.4,51.4,35.1,45.9,26.5,12.6,77,43,13,29.97,29.81,10,1,11,0.00
2013-2-5,72.3,49.6,31.7,31.0,19.2,9.9,65,36,9,30.02,29.90,5,0,9,0.00
2013-2-6,73.1,54.0,32.7,42.0,30.0,21.3,98,47,15,29.98,29.74,6,0,8,0.00
2013-2-7,60.8,52.3,37.9,29.5,25.1,21.9,53,35,27,30.20,29.79,9,2,14,0.00
2013-2-8,58.2,44.1,28.9,27.1,20.3,16.0,73,43,19,30.28,30.03,8,1,9,0.00
2013-2-9,71.7,52.8,38.4,43.3,28.2,15.1,57,40,15,30.03,29.53,9,1,13,0.00
2013-2-10,59.1,44.8,34.7,20.2,10.5,2.9,44,26,11,30.03,29.76,13,1,15,0.00
2013-2-11,55.4,43.0,34.9,26.9,21.3,9.8,59,43,28,30.14,29.95,9,1,11,0.00
2013-2-12,40.5,35.9,27.1,37.1,31.9,26.1,97,86,59,30.18,29.88,5,0,8,0.26
2013-2-13,58.4,39.5,25.8,29.3,22.8,13.7,98,58,18,30.21,30.03,6,0,7,0.01
2013-2-14,60.2,44.2,26.3,33.9,23.4,16.4,78,47,23,30.22,29.97,11,1,11,0.00
2013-2-15,45.4,36.0,29.6,33.2,24.6,19.6,83,65,36,30.45,30.21,7,1,11,0.00
2013-2-16,66.0,44.3,26.0,27.5,19.3,6.9,83,44,11,30.49,30.09,6,0,7,0.00
2013-2-17,71.7,51.5,29.8,24.4,12.0,-7.7,53,26,5,30.09,29.70,12,2,12,0.00
2013-2-18,56.2,47.8,36.7,32.1,21.1,9.4,59,36,20,30.11,29.68,9,1,9,0.00
2013-2-19,56.5,44.3,31.0,40.1,21.9,16.1,93,45,21,30.25,30.03,9,1,13,0.06
2013-2-20,42.9,40.1,37.3,41.1,38.8,36.5,98,95,90,30.03,29.59,9,2,10,0.20
2013-2-21,53.7,41.3,31.6,38.2,33.4,28.7,99,76,51,29.98,29.63,11,1,16,0.19
2013-2-22,48.9,35.0,23.9,30.0,25.6,20.8,91,70,44,30.13,29.97,5,0,5,0.00
2013-2-23,62.1,42.5,25.7,29.0,20.0,5.8,94,50,12,30.09,29.79,10,1,10,0.00
2013-2-24,70.6,50.2,31.0,31.5,22.7,5.5,77,41,9,29.79,29.50,13,2,17,0.00
2013-2-25,36.4,32.1,28.5,32.2,28.7,24.3,96,87,76,30.02,29.61,15,3,18,0.04
2013-2-26,61.4,40.2,22.8,33.6,25.8,16.8,89,60,24,30.02,29.79,5,0,7,0.08
2013-2-27,46.2,37.0,28.8,28.9,26.4,23.1,90,67,45,30.35,29.96,10,2,14,0.00
2013-2-28,52.5,35.1,26.3,27.6,25.1,20.4,92,70,30,30.42,30.27,3,0,4,0.00